Time;durP1;ratioP1;P1;durP2;ratioP2;P2;SDS_P1;SDS_P2;PMS_P1;PMS_P2;Temp;Humidity;BMP_temperature;BMP_pressure;BME280_temperature;BME280_humidity;BME280_pressure;Samples;Min_cycle;Max_cycle;Signal;HPM_P1;HPM_P2
2022/01/05 00:00:02;;;;;;;19.23;13.35;;;9.00;99.90;;;;;;4886529;29;20036;-47
2022/01/05 00:02:28;;;;;;;23.17;13.73;;;8.90;99.90;;;;;;4870780;29;20048;-49
2022/01/05 00:04:54;;;;;;;19.83;14.38;;;8.90;99.90;;;;;;4871111;29;20067;-44
2022/01/05 00:07:19;;;;;;;21.63;15.30;;;8.90;99.90;;;;;;4919466;29;20028;-49
2022/01/05 00:09:45;;;;;;;19.42;14.25;;;8.90;99.90;;;;;;4919795;29;20042;-45
2022/01/05 00:12:11;;;;;;;25.38;14.57;;;8.80;99.90;;;;;;4870749;29;20096;-47
2022/01/05 00:14:37;;;;;;;21.17;14.65;;;8.70;99.90;;;;;;4870606;29;20100;-47
2022/01/05 00:17:03;;;;;;;24.73;15.15;;;8.60;99.90;;;;;;4901730;29;20036;-47
2022/01/05 00:19:28;;;;;;;21.40;12.27;;;8.50;99.90;;;;;;4869519;29;20469;-49
2022/01/05 00:21:54;;;;;;;17.33;11.98;;;8.20;99.90;;;;;;4870777;29;20479;-49
2022/01/05 00:24:20;;;;;;;17.98;10.82;;;8.00;99.90;;;;;;4854705;29;20095;-47
2022/01/05 00:26:46;;;;;;;18.67;10.07;;;7.80;99.90;;;;;;4870533;29;20140;-48
2022/01/05 00:29:11;;;;;;;21.65;12.68;;;7.60;99.90;;;;;;4885980;29;20075;-48
2022/01/05 00:31:37;;;;;;;17.63;12.18;;;7.60;99.90;;;;;;4869987;29;20040;-47
2022/01/05 00:34:03;;;;;;;16.55;10.80;;;7.60;99.90;;;;;;4870695;29;20039;-48
2022/01/05 00:36:29;;;;;;;8.43;5.40;;;7.60;99.90;;;;;;4919184;29;20492;-47
2022/01/05 00:38:55;;;;;;;12.77;7.53;;;7.50;99.90;;;;;;4919173;29;20032;-48
2022/01/05 00:41:21;;;;;;;11.68;8.02;;;7.60;99.90;;;;;;4854548;29;20111;-48
2022/01/05 00:43:46;;;;;;;15.02;8.40;;;7.60;99.90;;;;;;4919101;29;20024;-48
2022/01/05 00:46:12;;;;;;;15.15;9.05;;;7.60;99.90;;;;;;4885744;29;20052;-49
2022/01/05 00:48:38;;;;;;;16.60;10.02;;;7.60;99.90;;;;;;4919388;29;20539;-45
2022/01/05 00:51:06;;;;;;;15.13;8.98;;;7.70;99.90;;;;;;4918924;29;20032;-44
2022/01/05 00:53:33;;;;;;;13.25;6.50;;;7.80;99.90;;;;;;4918763;29;20476;-48
2022/01/05 00:55:59;;;;;;;11.45;6.75;;;7.60;99.90;;;;;;4918858;29;20031;-48
2022/01/05 00:58:25;;;;;;;13.70;6.70;;;7.50;99.90;;;;;;4918680;29;20035;-46
2022/01/05 01:00:51;;;;;;;9.13;5.68;;;7.60;99.90;;;;;;4918737;29;20056;-44
2022/01/05 01:03:17;;;;;;;9.95;6.25;;;7.70;99.90;;;;;;4901013;29;20040;-47
2022/01/05 01:05:43;;;;;;;9.25;5.63;;;7.80;99.90;;;;;;4918768;29;20457;-45
2022/01/05 01:08:09;;;;;;;10.38;6.47;;;7.90;99.90;;;;;;4918367;29;20055;-48
2022/01/05 01:10:36;;;;;;;13.20;8.07;;;8.10;99.90;;;;;;4918481;29;20115;-49
2022/01/05 01:13:02;;;;;;;15.85;10.25;;;8.00;99.90;;;;;;4918759;29;20353;-47
2022/01/05 01:15:28;;;;;;;14.88;10.52;;;7.40;99.90;;;;;;4918590;29;20366;-45
2022/01/05 01:17:54;;;;;;;11.57;8.98;;;7.30;99.90;;;;;;4918705;29;20062;-47
2022/01/05 01:20:20;;;;;;;13.90;9.20;;;7.30;99.90;;;;;;4918685;29;20163;-48
2022/01/05 01:22:47;;;;;;;15.80;8.02;;;7.50;99.90;;;;;;4900272;29;20052;-49
2022/01/05 01:25:13;;;;;;;10.63;7.60;;;7.70;99.90;;;;;;4918266;29;20357;-46
2022/01/05 01:27:42;;;;;;;9.98;6.45;;;7.70;99.90;;;;;;4884743;29;20036;-46
2022/01/05 01:30:10;;;;;;;7.55;5.15;;;7.70;99.90;;;;;;4917936;29;20044;-47
2022/01/05 01:32:37;;;;;;;11.23;6.60;;;8.00;99.90;;;;;;4869905;29;20043;-48
2022/01/05 01:35:04;;;;;;;11.30;6.00;;;7.90;99.90;;;;;;4918405;29;20409;-48
2022/01/05 01:37:30;;;;;;;9.43;7.10;;;7.90;99.90;;;;;;4869458;29;20041;-47
2022/01/05 01:39:56;;;;;;;9.20;6.38;;;7.80;99.90;;;;;;4877872;29;20037;-48
2022/01/05 01:42:22;;;;;;;9.52;6.65;;;7.60;99.90;;;;;;4816608;29;20049;-49
2022/01/05 01:44:48;;;;;;;8.52;5.85;;;7.50;99.90;;;;;;4862074;29;20041;-49
2022/01/05 01:47:14;;;;;;;10.88;7.53;;;7.40;99.90;;;;;;4816537;29;20517;-46
2022/01/05 01:49:40;;;;;;;9.88;7.10;;;7.10;99.90;;;;;;4877964;29;20037;-50
2022/01/05 01:52:07;;;;;;;8.18;5.18;;;7.10;99.90;;;;;;4877543;29;20033;-50
2022/01/05 01:54:35;;;;;;;11.43;6.57;;;7.00;99.90;;;;;;4846918;29;20037;-49
2022/01/05 01:57:01;;;;;;;10.48;7.15;;;7.10;99.90;;;;;;4877939;29;20120;-46
2022/01/05 01:59:28;;;;;;;9.55;6.47;;;7.20;99.90;;;;;;4877837;29;20041;-48
2022/01/05 02:01:54;;;;;;;9.23;6.38;;;7.20;99.90;;;;;;4877715;29;20072;-48
2022/01/05 02:04:21;;;;;;;10.82;5.85;;;7.20;99.90;;;;;;4846803;29;20052;-47
2022/01/05 02:06:47;;;;;;;5.15;3.58;;;7.40;99.90;;;;;;4877764;29;20059;-49
2022/01/05 02:09:14;;;;;;;9.35;6.13;;;7.60;99.90;;;;;;4877705;29;20057;-46
2022/01/05 02:11:40;;;;;;;11.82;6.45;;;7.60;99.90;;;;;;4877019;29;20044;-47
2022/01/05 02:14:07;;;;;;;8.63;5.30;;;7.40;99.90;;;;;;4917870;29;20039;-46
2022/01/05 02:16:35;;;;;;;8.63;4.72;;;7.50;99.90;;;;;;4884126;29;20032;-47
2022/01/05 02:19:01;;;;;;;8.10;5.50;;;7.50;99.90;;;;;;4917359;29;20039;-46
2022/01/05 02:21:32;;;;;;;9.95;6.13;;;7.60;99.90;;;;;;4917189;29;20072;-44
2022/01/05 02:23:59;;;;;;;7.72;4.47;;;7.70;99.90;;;;;;4917244;29;20028;-46
2022/01/05 02:26:25;;;;;;;7.88;6.00;;;7.50;99.90;;;;;;4899599;29;20415;-48
2022/01/05 02:28:50;;;;;;;10.43;5.88;;;7.30;99.90;;;;;;4899408;29;20040;-47
2022/01/05 02:31:16;;;;;;;4.75;3.58;;;7.30;99.90;;;;;;4883951;29;20091;-48
2022/01/05 02:33:42;;;;;;;3.95;2.65;;;7.60;99.90;;;;;;4917296;29;20354;-49
2022/01/05 02:36:11;;;;;;;5.07;3.72;;;7.70;99.90;;;;;;4899230;29;20486;-46
2022/01/05 02:38:37;;;;;;;5.88;4.78;;;7.70;99.90;;;;;;4917081;29;20070;-46
2022/01/05 02:41:08;;;;;;;6.03;3.85;;;7.80;99.90;;;;;;4917140;29;20032;-48
2022/01/05 02:43:35;;;;;;;4.93;2.97;;;7.70;99.90;;;;;;4919750;29;20039;-47
2022/01/05 02:46:02;;;;;;;3.97;3.25;;;7.90;99.90;;;;;;4902968;29;20047;-47
2022/01/05 02:48:28;;;;;;;3.58;2.22;;;8.10;99.90;;;;;;4903312;29;20384;-47
2022/01/05 02:50:57;;;;;;;4.53;2.30;;;8.20;99.90;;;;;;4920938;29;20035;-48
2022/01/05 02:53:23;;;;;;;2.67;1.88;;;8.30;99.90;;;;;;4921133;29;20385;-45
2022/01/05 02:55:50;;;;;;;5.95;3.45;;;8.40;99.90;;;;;;4920837;29;20032;-49
2022/01/05 02:58:16;;;;;;;2.38;1.65;;;8.40;99.90;;;;;;4921173;29;20059;-50
2022/01/05 03:00:42;;;;;;;4.10;2.97;;;8.40;99.90;;;;;;4887522;29;20067;-50
2022/01/05 03:03:07;;;;;;;5.00;2.65;;;8.50;99.90;;;;;;4920729;29;20107;-45
2022/01/05 03:05:33;;;;;;;4.53;3.05;;;8.50;99.90;;;;;;4871440;29;20499;-47
2022/01/05 03:07:59;;;;;;;6.10;4.00;;;8.70;99.90;;;;;;4903539;29;20445;-47
2022/01/05 03:10:25;;;;;;;5.95;3.22;;;8.60;99.90;;;;;;4920658;29;20036;-49
2022/01/05 03:12:51;;;;;;;4.80;2.95;;;8.60;99.90;;;;;;4902452;29;20520;-49
2022/01/05 03:15:17;;;;;;;6.00;2.58;;;8.80;99.90;;;;;;4920490;29;20032;-47
2022/01/05 03:17:43;;;;;;;4.95;2.55;;;8.80;99.90;;;;;;4887340;29;20091;-49
2022/01/05 03:20:11;;;;;;;4.07;1.85;;;8.80;99.90;;;;;;4902540;29;20401;-49
2022/01/05 03:22:37;;;;;;;2.63;1.80;;;8.80;99.90;;;;;;4920246;29;20042;-49
2022/01/05 03:25:05;;;;;;;4.03;2.53;;;8.60;99.90;;;;;;4920535;29;20107;-45
2022/01/05 03:27:31;;;;;;;6.53;3.38;;;8.70;99.90;;;;;;4864742;29;20673;-44
2022/01/05 03:29:56;;;;;;;3.53;2.58;;;8.80;99.90;;;;;;4880380;29;20046;-50
2022/01/05 03:32:24;;;;;;;2.75;1.90;;;8.80;99.90;;;;;;4880370;29;20597;-48
2022/01/05 03:34:51;;;;;;;4.88;2.38;;;8.70;99.90;;;;;;4880269;29;20600;-49
2022/01/05 03:37:17;;;;;;;5.90;3.80;;;8.60;99.90;;;;;;4880152;29;20041;-44
2022/01/05 03:39:43;;;;;;;5.80;3.08;;;8.80;99.90;;;;;;4880317;29;20145;-47
2022/01/05 03:42:09;;;;;;;6.03;3.38;;;8.80;99.90;;;;;;4880024;29;20154;-50
2022/01/05 03:44:35;;;;;;;3.75;2.30;;;8.90;99.90;;;;;;4880274;29;20025;-48
2022/01/05 03:47:01;;;;;;;3.03;2.42;;;9.10;99.90;;;;;;4849146;29;20390;-47
2022/01/05 03:49:27;;;;;;;3.85;2.10;;;9.30;99.90;;;;;;4880030;29;20152;-47
2022/01/05 03:51:52;;;;;;;4.68;1.95;;;9.40;99.90;;;;;;4864420;29;20690;-45
2022/01/05 03:54:18;;;;;;;4.35;2.60;;;9.50;99.90;;;;;;4879763;29;20059;-45
2022/01/05 03:56:45;;;;;;;4.65;2.17;;;9.40;99.90;;;;;;4879897;29;20041;-45
2022/01/05 03:59:11;;;;;;;3.97;2.33;;;9.30;99.90;;;;;;4910990;29;20068;-49
2022/01/05 04:01:37;;;;;;;4.28;2.60;;;9.10;99.90;;;;;;4919671;29;20068;-48
2022/01/05 04:04:03;;;;;;;3.35;2.20;;;9.00;99.90;;;;;;4919742;29;20609;-44
2022/01/05 04:06:28;;;;;;;5.10;2.10;;;8.80;99.90;;;;;;4870628;29;20040;-45
2022/01/05 04:08:54;;;;;;;5.95;2.00;;;8.70;99.90;;;;;;4919494;29;20048;-45
2022/01/05 04:11:20;;;;;;;5.63;2.50;;;8.70;99.90;;;;;;4886237;29;20039;-46
2022/01/05 04:13:45;;;;;;;4.57;2.03;;;8.80;99.90;;;;;;4886093;29;20047;-47
2022/01/05 04:16:11;;;;;;;4.32;2.05;;;8.80;99.90;;;;;;4919597;29;20062;-48
2022/01/05 04:18:37;;;;;;;5.35;1.98;;;8.70;99.90;;;;;;4886043;29;20481;-47
2022/01/05 04:21:03;;;;;;;6.45;3.88;;;8.60;99.90;;;;;;4919326;29;20027;-48
2022/01/05 04:23:29;;;;;;;7.70;2.85;;;8.70;99.90;;;;;;4919370;29;20028;-48
2022/01/05 04:25:54;;;;;;;4.28;2.17;;;8.60;99.90;;;;;;4885898;29;20042;-49
2022/01/05 04:28:20;;;;;;;8.43;3.88;;;8.50;99.90;;;;;;4919407;29;20028;-49
2022/01/05 04:30:46;;;;;;;4.40;3.03;;;8.50;99.90;;;;;;4919435;29;20377;-47
2022/01/05 04:33:12;;;;;;;4.72;2.80;;;8.50;99.90;;;;;;4919136;29;20079;-50
2022/01/05 04:35:38;;;;;;;4.35;2.35;;;8.50;99.90;;;;;;4919130;29;20075;-46
2022/01/05 04:38:03;;;;;;;2.25;1.90;;;8.50;99.90;;;;;;4885570;29;20418;-46
2022/01/05 04:40:31;;;;;;;5.97;3.33;;;8.50;99.90;;;;;;4918993;29;20110;-48
2022/01/05 04:42:57;;;;;;;5.53;2.30;;;8.40;99.90;;;;;;4918926;29;20472;-47
2022/01/05 04:45:23;;;;;;;4.25;2.42;;;8.40;99.90;;;;;;4919118;29;20103;-47
2022/01/05 04:47:49;;;;;;;3.78;1.67;;;8.20;99.90;;;;;;4919013;29;20481;-50
2022/01/05 04:50:15;;;;;;;4.72;3.20;;;8.10;99.90;;;;;;4918097;29;20054;-46
2022/01/05 04:52:42;;;;;;;5.00;3.25;;;8.10;99.90;;;;;;4918683;29;20473;-45
2022/01/05 04:55:09;;;;;;;4.80;2.63;;;8.10;99.90;;;;;;4918978;29;20036;-46
2022/01/05 04:57:35;;;;;;;5.93;3.83;;;8.10;99.90;;;;;;4901023;29;20044;-47
2022/01/05 05:00:01;;;;;;;5.57;3.88;;;8.10;99.90;;;;;;4918626;29;20080;-45
2022/01/05 05:02:26;;;;;;;6.20;4.05;;;8.10;99.90;;;;;;4899767;29;20051;-53
2022/01/05 05:04:52;;;;;;;3.78;3.05;;;8.10;99.90;;;;;;4919181;29;20051;-48
2022/01/05 05:07:18;;;;;;;5.75;3.30;;;8.20;99.90;;;;;;4884809;29;20477;-46
2022/01/05 05:09:44;;;;;;;4.93;3.47;;;8.20;99.90;;;;;;4918819;29;20056;-45
2022/01/05 05:12:10;;;;;;;3.22;1.80;;;8.30;99.90;;;;;;4916238;29;20028;-45
2022/01/05 05:14:36;;;;;;;3.78;2.83;;;8.40;99.90;;;;;;4868351;29;20072;-47
2022/01/05 05:17:02;;;;;;;7.05;2.00;;;8.40;99.90;;;;;;4917016;29;20119;-45
2022/01/05 05:19:31;;;;;;;4.72;2.85;;;8.40;99.90;;;;;;4918433;29;20093;-46
2022/01/05 05:21:57;;;;;;;5.63;3.22;;;8.40;99.90;;;;;;4884810;29;20488;-47
2022/01/05 05:24:23;;;;;;;7.32;3.42;;;8.50;99.90;;;;;;4917278;29;20079;-48
2022/01/05 05:26:48;;;;;;;4.97;2.72;;;8.90;99.90;;;;;;4916573;29;20111;-45
2022/01/05 05:29:14;;;;;;;4.30;2.47;;;9.00;99.90;;;;;;4913972;29;20036;-48
2022/01/05 05:31:40;;;;;;;7.55;3.40;;;9.00;99.90;;;;;;4898595;29;20040;-47
2022/01/05 05:34:06;;;;;;;4.88;2.75;;;9.00;99.90;;;;;;4876353;29;20040;-47
2022/01/05 05:36:32;;;;;;;5.40;2.83;;;8.90;99.90;;;;;;4916346;29;20114;-46
2022/01/05 05:38:57;;;;;;;4.38;2.80;;;9.00;99.90;;;;;;4890661;29;20500;-46
2022/01/05 05:41:23;;;;;;;3.10;1.95;;;9.00;99.90;;;;;;4917913;29;20477;-46
2022/01/05 05:43:49;;;;;;;2.40;1.52;;;9.20;99.90;;;;;;4900213;29;20044;-48
2022/01/05 05:46:16;;;;;;;5.55;3.22;;;9.10;99.90;;;;;;4877202;29;20043;-50
2022/01/05 05:48:42;;;;;;;3.38;2.17;;;9.10;99.90;;;;;;4917591;29;20047;-46
2022/01/05 05:51:10;;;;;;;4.47;2.75;;;9.00;99.90;;;;;;4917644;29;20024;-45
2022/01/05 05:53:35;;;;;;;4.40;3.10;;;8.90;99.90;;;;;;4900335;29;20032;-47
2022/01/05 05:56:01;;;;;;;6.28;3.03;;;8.90;99.90;;;;;;4912469;29;20091;-46
2022/01/05 05:58:27;;;;;;;3.50;2.55;;;9.00;99.90;;;;;;4879146;29;20428;-49
2022/01/05 06:00:53;;;;;;;10.07;4.45;;;9.00;99.90;;;;;;4847531;29;20128;-49
2022/01/05 06:03:18;;;;;;;3.75;3.15;;;9.00;99.90;;;;;;4898854;29;20158;-51
2022/01/05 06:05:44;;;;;;;7.85;5.43;;;8.90;99.90;;;;;;4882745;29;20123;-48
2022/01/05 06:08:10;;;;;;;5.32;3.53;;;8.60;99.90;;;;;;4916852;29;20387;-46
2022/01/05 06:10:36;;;;;;;6.22;3.60;;;8.30;99.90;;;;;;4885968;29;20100;-49
2022/01/05 06:13:01;;;;;;;7.25;5.45;;;8.20;99.90;;;;;;4843243;29;20032;-50
2022/01/05 06:15:27;;;;;;;6.43;4.10;;;8.10;99.90;;;;;;4865861;29;20095;-48
2022/01/05 06:17:53;;;;;;;8.10;5.25;;;7.90;99.90;;;;;;4898466;29;20116;-49
2022/01/05 06:20:19;;;;;;;7.82;4.70;;;7.80;99.90;;;;;;4865788;29;20040;-46
2022/01/05 06:22:44;;;;;;;5.32;3.90;;;7.70;99.90;;;;;;4898819;29;20040;-47
2022/01/05 06:25:12;;;;;;;10.75;4.95;;;7.70;99.90;;;;;;4896462;29;20040;-47
2022/01/05 06:27:38;;;;;;;8.00;5.22;;;7.80;99.90;;;;;;4912732;29;20716;-46
2022/01/05 06:30:07;;;;;;;11.40;7.45;;;7.80;99.90;;;;;;4913597;29;20067;-48
2022/01/05 06:32:34;;;;;;;9.75;7.70;;;7.80;99.90;;;;;;4916699;29;20040;-50
2022/01/05 06:35:01;;;;;;;10.80;6.63;;;7.80;99.90;;;;;;4899241;29;20073;-47
2022/01/05 06:37:27;;;;;;;9.20;6.70;;;7.70;99.90;;;;;;4917361;29;20036;-50
2022/01/05 06:39:53;;;;;;;9.40;6.78;;;7.70;99.90;;;;;;4914505;29;20032;-51
2022/01/05 06:42:18;;;;;;;8.65;5.78;;;7.80;99.90;;;;;;4878668;29;20051;-49
2022/01/05 06:44:44;;;;;;;11.15;6.50;;;7.70;99.90;;;;;;4917198;29;20024;-47
2022/01/05 06:47:10;;;;;;;11.52;6.90;;;7.80;99.90;;;;;;4917067;29;20099;-49
2022/01/05 06:49:36;;;;;;;10.07;6.13;;;7.80;99.90;;;;;;4899578;29;20044;-50
2022/01/05 06:52:02;;;;;;;9.70;6.82;;;7.90;99.90;;;;;;4917431;29;20028;-47
2022/01/05 06:54:29;;;;;;;11.63;7.10;;;8.20;99.90;;;;;;4883912;29;20516;-48
2022/01/05 06:56:55;;;;;;;7.55;5.80;;;8.60;99.90;;;;;;4917625;29;20042;-47
2022/01/05 06:59:21;;;;;;;7.35;5.18;;;8.80;99.90;;;;;;4917361;29;20110;-49
2022/01/05 07:01:47;;;;;;;7.90;6.07;;;9.70;99.90;;;;;;4899333;29;20047;-48
2022/01/05 07:04:13;;;;;;;7.97;5.63;;;10.30;99.90;;;;;;4915160;29;20040;-47
2022/01/05 07:06:39;;;;;;;8.35;5.85;;;10.00;99.90;;;;;;4899346;29;20047;-48
2022/01/05 07:09:05;;;;;;;10.73;7.20;;;9.70;99.90;;;;;;4917006;29;20095;-50
2022/01/05 07:11:32;;;;;;;10.77;7.57;;;10.00;99.90;;;;;;4915101;29;20058;-49
2022/01/05 07:13:58;;;;;;;9.02;6.85;;;10.40;99.90;;;;;;4917094;29;20032;-50
2022/01/05 07:16:24;;;;;;;10.23;6.07;;;10.60;99.90;;;;;;4916973;29;20032;-50
2022/01/05 07:18:50;;;;;;;11.70;7.82;;;;;;;;;;4916719;29;20031;-48
2022/01/05 07:21:16;;;;;;;10.40;7.55;;;10.10;99.90;;;;;;4917090;29;20075;-49
2022/01/05 07:23:42;;;;;;;10.50;7.85;;;10.00;99.90;;;;;;4917094;29;20480;-49
2022/01/05 07:26:08;;;;;;;9.73;7.20;;;9.70;99.90;;;;;;4916601;29;20115;-50
2022/01/05 07:28:33;;;;;;;9.95;7.43;;;10.60;99.90;;;;;;4914626;29;20036;-49
2022/01/05 07:30:59;;;;;;;12.73;8.18;;;11.30;99.90;;;;;;4918153;29;20059;-48
2022/01/05 07:33:26;;;;;;;12.65;8.63;;;11.20;99.90;;;;;;4919693;29;20032;-47
2022/01/05 07:35:53;;;;;;;14.93;9.45;;;11.20;99.90;;;;;;4886464;29;20043;-47
2022/01/05 07:38:18;;;;;;;12.65;8.98;;;11.20;99.90;;;;;;4919239;29;20036;-51
2022/01/05 07:40:44;;;;;;;11.63;8.80;;;11.40;99.90;;;;;;4917719;29;20035;-51
2022/01/05 07:43:10;;;;;;;13.50;9.60;;;12.70;99.90;;;;;;4920106;29;20330;-47
2022/01/05 07:45:36;;;;;;;13.68;10.85;;;14.40;99.90;;;;;;4919962;29;20354;-48
2022/01/05 07:48:05;;;;;;;35.33;25.52;;;14.70;99.90;;;;;;4919378;29;20032;-48
2022/01/05 07:50:31;;;;;;;161.57;88.93;;;16.10;99.90;;;;;;4875997;29;20048;-48
2022/01/05 07:53:00;;;;;;;69.13;44.47;;;15.80;99.90;;;;;;4920057;29;20059;-47
2022/01/05 07:55:30;;;;;;;27.58;23.73;;;15.20;99.90;;;;;;4919344;29;20040;-50
2022/01/05 07:57:56;;;;;;;133.88;84.72;;;14.50;99.90;;;;;;4919225;29;20043;-52
2022/01/05 08:00:22;;;;;;;143.00;85.82;;;13.70;99.90;;;;;;4919669;29;20083;-51
2022/01/05 08:02:48;;;;;;;66.05;40.90;;;13.10;99.90;;;;;;4893816;29;20044;-48
2022/01/05 08:05:14;;;;;;;48.22;32.72;;;12.80;99.90;;;;;;4914860;29;20036;-47
2022/01/05 08:07:39;;;;;;;48.58;40.63;;;13.00;99.90;;;;;;4919548;29;20400;-48
2022/01/05 08:10:06;;;;;;;25.60;20.10;;;13.10;99.90;;;;;;4870634;29;20047;-47
2022/01/05 08:12:31;;;;;;;36.78;29.60;;;12.30;99.90;;;;;;4839459;29;20058;-49
2022/01/05 08:14:57;;;;;;;42.85;31.63;;;12.20;99.90;;;;;;4919574;29;20029;-47
2022/01/05 08:17:23;;;;;;;34.72;28.63;;;12.80;99.90;;;;;;4917588;29;20096;-50
2022/01/05 08:19:49;;;;;;;30.88;22.60;;;14.70;99.90;;;;;;4870822;29;20040;-50
2022/01/05 08:22:15;;;;;;;42.75;30.05;;;15.30;99.90;;;;;;4919403;29;20043;-50
2022/01/05 08:24:40;;;;;;;42.42;33.90;;;15.50;99.90;;;;;;4853096;29;20441;-49
2022/01/05 08:27:06;;;;;;;35.53;27.88;;;17.60;99.90;;;;;;4900772;29;20401;-49
2022/01/05 08:29:32;;;;;;;39.40;33.33;;;18.70;99.90;;;;;;4901545;29;20503;-48
2022/01/05 08:32:02;;;;;;;46.22;40.53;;;20.30;99.90;;;;;;4919211;29;20114;-50
2022/01/05 08:34:29;;;;;;;51.15;43.08;;;;;;;;;;4887010;29;20048;-48
2022/01/05 08:36:55;;;;;;;30.02;25.23;;;;;;;;;;4917819;29;20497;-48
2022/01/05 08:39:23;;;;;;;31.02;27.75;;;21.30;94.60;;;;;;4918262;29;20016;-45
2022/01/05 08:41:52;;;;;;;21.30;15.50;;;21.10;95.00;;;;;;4874649;29;20091;-46
2022/01/05 08:44:18;;;;;;;18.55;16.55;;;21.10;94.20;;;;;;4917878;29;20025;-46
2022/01/05 08:46:45;;;;;;;20.88;18.50;;;20.60;94.60;;;;;;4918304;29;20024;-46
2022/01/05 08:49:11;;;;;;;19.77;17.67;;;21.60;94.40;;;;;;4918313;29;20024;-46
2022/01/05 08:51:40;;;;;;;21.63;17.15;;;23.10;92.70;;;;;;4918183;29;20543;-47
2022/01/05 08:54:06;;;;;;;31.95;28.85;;;23.10;92.40;;;;;;4900584;29;20064;-47
2022/01/05 08:56:32;;;;;;;38.83;34.45;;;24.20;95.90;;;;;;4918700;29;20035;-47
2022/01/05 08:58:58;;;;;;;56.30;45.72;;;22.20;91.20;;;;;;4901064;29;20036;-46
2022/01/05 09:01:25;;;;;;;26.23;23.63;;;23.00;90.40;;;;;;4918468;29;20473;-46
2022/01/05 09:03:52;;;;;;;37.75;33.75;;;21.40;91.10;;;;;;4916221;29;20028;-47
2022/01/05 09:06:19;;;;;;;39.00;34.03;;;21.50;91.30;;;;;;4918507;29;20075;-47
2022/01/05 09:08:45;;;;;;;27.23;21.33;;;22.70;91.00;;;;;;4918227;29;20056;-46
2022/01/05 09:11:11;;;;;;;32.83;27.88;;;21.20;90.50;;;;;;4915962;29;20429;-45
2022/01/05 09:13:37;;;;;;;22.88;19.40;;;20.30;91.80;;;;;;4917238;29;20036;-45
2022/01/05 09:16:04;;;;;;;33.47;26.95;;;19.70;92.30;;;;;;4918216;29;20570;-47
2022/01/05 09:18:30;;;;;;;26.02;19.98;;;19.70;92.50;;;;;;4853509;29;20046;-48
2022/01/05 09:20:56;;;;;;;23.75;21.00;;;19.20;92.90;;;;;;4917928;29;20324;-45
2022/01/05 09:23:22;;;;;;;35.00;27.27;;;19.80;92.90;;;;;;4917068;29;20654;-48
2022/01/05 09:25:48;;;;;;;29.17;25.30;;;19.60;93.50;;;;;;4918201;29;20036;-47
2022/01/05 09:28:14;;;;;;;33.90;27.05;;;20.80;92.90;;;;;;4899145;29;20421;-47
2022/01/05 09:30:45;;;;;;;25.40;22.77;;;20.00;93.30;;;;;;4917972;29;20123;-46
2022/01/05 09:33:12;;;;;;;32.72;29.25;;;21.00;92.80;;;;;;4917328;29;20066;-46
2022/01/05 09:35:38;;;;;;;36.33;32.42;;;23.70;92.20;;;;;;4918033;29;20040;-46
2022/01/05 09:43:14;;;;;;;90.13;59.88;;;25.80;88.20;;;;;;4916751;29;20403;-47
2022/01/05 09:45:53;;;;;;;269.95;200.45;;;24.90;85.40;;;;;;4917553;29;20507;-47
2022/01/05 09:48:38;;;;;;;491.08;403.60;;;25.60;84.50;;;;;;4900092;29;20083;-46
2022/01/05 09:51:12;;;;;;;485.38;410.98;;;25.90;84.50;;;;;;4917820;29;20035;-46
2022/01/05 09:53:39;;;;;;;356.50;311.35;;;25.80;84.20;;;;;;4917758;29;20035;-47
2022/01/05 09:56:06;;;;;;;140.02;125.47;;;26.40;84.10;;;;;;4899983;29;20490;-48
2022/01/05 09:58:32;;;;;;;98.38;87.75;;;26.10;83.30;;;;;;4899939;29;20036;-48
2022/01/05 10:00:59;;;;;;;45.28;36.80;;;25.40;82.50;;;;;;4917494;29;20032;-48
2022/01/05 10:03:26;;;;;;;90.07;80.55;;;22.80;85.60;;;;;;4917762;29;20036;-48
2022/01/05 10:05:52;;;;;;;55.75;50.05;;;22.80;86.90;;;;;;4917454;29;20039;-46
2022/01/05 10:08:18;;;;;;;70.95;55.67;;;22.30;87.60;;;;;;4868836;29;20048;-45
2022/01/05 10:10:44;;;;;;;69.78;62.35;;;21.50;89.40;;;;;;4917130;29;20103;-45
2022/01/05 10:13:10;;;;;;;38.13;34.03;;;21.30;90.20;;;;;;4868634;29;20107;-47
2022/01/05 10:15:36;;;;;;;42.00;37.58;;;21.10;90.40;;;;;;4917568;29;20257;-47
2022/01/05 10:18:17;;;;;;;43.05;30.58;;;21.20;90.90;;;;;;4899680;29;20051;-48
2022/01/05 10:21:05;;;;;;;38.13;31.45;;;22.40;90.80;;;;;;4917231;29;20036;-46
2022/01/05 10:23:47;;;;;;;32.85;29.17;;;24.00;90.60;;;;;;4917297;29;20048;-46
2022/01/05 10:26:25;;;;;;;30.95;27.50;;;25.30;90.00;;;;;;4900383;29;20075;-45
2022/01/05 10:28:53;;;;;;;25.42;22.40;;;25.00;87.20;;;;;;4917137;29;20035;-48
2022/01/05 10:31:25;;;;;;;21.05;18.75;;;25.70;85.60;;;;;;4897127;29;20046;-47
2022/01/05 10:33:51;;;;;;;28.60;18.45;;;24.60;86.60;;;;;;4917181;29;20032;-47
2022/01/05 10:36:18;;;;;;;50.17;36.08;;;23.40;87.60;;;;;;4917094;29;20067;-47
2022/01/05 10:38:59;;;;;;;22.73;18.02;;;24.10;89.00;;;;;;4917201;29;20039;-47
2022/01/05 10:41:28;;;;;;;20.52;16.58;;;23.50;87.00;;;;;;4852792;29;20438;-48
2022/01/05 10:44:29;;;;;;;23.52;18.73;;;23.40;87.40;;;;;;4858625;29;20066;-49
2022/01/05 10:46:57;;;;;;;22.45;16.95;;;23.70;87.40;;;;;;4822304;29;20038;-45
2022/01/05 10:49:30;;;;;;;31.20;24.15;;;24.10;88.60;;;;;;4822152;29;20047;-47
2022/01/05 10:51:59;;;;;;;62.40;33.78;;;23.30;87.70;;;;;;4822106;29;20038;-45
2022/01/05 10:54:28;;;;;;;47.42;26.42;;;22.10;89.50;;;;;;4833312;29;20082;-46
2022/01/05 10:56:54;;;;;;;48.63;28.65;;;21.70;89.90;;;;;;4819169;29;20043;-47
2022/01/05 10:59:35;;;;;;;26.52;18.60;;;21.40;90.70;;;;;;4821488;29;20053;-46
2022/01/05 11:02:30;;;;;;;24.80;20.90;;;21.10;90.80;;;;;;4821394;29;20145;-45
2022/01/05 11:05:08;;;;;;;25.80;16.17;;;20.90;91.20;;;;;;4824064;29;20095;-48
2022/01/05 11:07:39;;;;;;;67.50;42.58;;;20.30;91.80;;;;;;4823341;29;20202;-47
2022/01/05 11:10:09;;;;;;;60.50;38.97;;;19.90;92.50;;;;;;4822428;29;20480;-47
2022/01/05 11:12:41;;;;;;;40.55;27.50;;;19.70;92.40;;;;;;4802853;29;20089;-45
2022/01/05 11:15:19;;;;;;;38.45;25.80;;;19.50;92.30;;;;;;4821214;29;20045;-45
2022/01/05 11:18:04;;;;;;;21.90;16.48;;;19.30;92.60;;;;;;4858973;29;20363;-47
2022/01/05 11:20:30;;;;;;;12.73;9.10;;;19.30;93.20;;;;;;4860328;29;20072;-48
2022/01/05 11:22:56;;;;;;;29.70;21.45;;;19.30;93.50;;;;;;4898625;29;20560;-46
2022/01/05 11:25:23;;;;;;;37.80;29.27;;;18.70;93.90;;;;;;4864684;29;20104;-48
2022/01/05 11:27:49;;;;;;;27.08;21.30;;;18.50;94.50;;;;;;4880635;29;20049;-45
2022/01/05 11:30:15;;;;;;;28.83;23.50;;;18.10;94.90;;;;;;4880231;29;20041;-45
2022/01/05 11:32:42;;;;;;;17.10;12.88;;;18.00;95.00;;;;;;4880562;29;20047;-45
2022/01/05 11:35:08;;;;;;;14.35;10.45;;;18.00;95.20;;;;;;4873220;29;20402;-44
2022/01/05 11:37:34;;;;;;;13.88;10.23;;;17.70;95.60;;;;;;4879225;29;20477;-47
2022/01/05 11:40:04;;;;;;;11.35;8.18;;;17.80;95.70;;;;;;4858551;29;20041;-47
2022/01/05 11:42:36;;;;;;;11.30;8.70;;;17.80;95.70;;;;;;4846273;29;20062;-45
2022/01/05 11:45:02;;;;;;;;;;;17.80;95.90;;;;;;4862004;29;20450;-46
2022/01/05 11:47:30;;;;;;;9.88;8.20;;;17.80;95.90;;;;;;4841441;29;20342;-47
2022/01/05 11:50:23;;;;;;;12.13;9.65;;;17.80;96.10;;;;;;4842373;29;20430;-46
2022/01/05 11:52:53;;;;;;;15.68;11.50;;;17.80;96.20;;;;;;4843201;29;20462;-47
2022/01/05 11:55:19;;;;;;;16.08;11.77;;;17.70;96.60;;;;;;4844372;29;20046;-47
2022/01/05 11:58:17;;;;;;;14.45;10.77;;;17.60;96.50;;;;;;4860165;29;20131;-44
2022/01/05 12:00:45;;;;;;;12.27;9.10;;;17.60;96.80;;;;;;4845989;29;20065;-44
2022/01/05 12:03:11;;;;;;;9.68;7.93;;;17.50;97.00;;;;;;4861159;29;20065;-46
2022/01/05 12:06:09;;;;;;;29.98;23.58;;;17.30;97.60;;;;;;4861404;29;20071;-48
2022/01/05 12:08:41;;;;;;;44.42;31.67;;;17.00;98.10;;;;;;4823312;29;20058;-45
2022/01/05 12:11:31;;;;;;;57.70;42.88;;;16.90;98.20;;;;;;4824351;29;20543;-46
2022/01/05 12:14:06;;;;;;;26.83;22.52;;;16.70;98.80;;;;;;4824257;29;20050;-44
2022/01/05 12:17:00;;;;;;;31.17;23.95;;;16.80;99.00;;;;;;4824454;29;20067;-47
2022/01/05 12:19:49;;;;;;;55.65;49.63;;;16.90;98.90;;;;;;4840624;29;20053;-46
2022/01/05 12:22:17;;;;;;;31.88;28.67;;;17.10;99.20;;;;;;4824028;29;20511;-45
2022/01/05 12:25:04;;;;;;;36.20;23.83;;;17.00;98.90;;;;;;4824317;29;20050;-48
2022/01/05 12:27:37;;;;;;;45.38;28.40;;;17.20;99.00;;;;;;4824183;29;20508;-48
2022/01/05 12:30:18;;;;;;;23.75;16.95;;;17.40;99.00;;;;;;4824303;29;20053;-48
2022/01/05 12:32:46;;;;;;;37.43;25.93;;;17.50;98.90;;;;;;4824228;29;20085;-45
2022/01/05 12:35:15;;;;;;;21.38;15.50;;;17.70;98.80;;;;;;4824076;29;20211;-47
2022/01/05 12:37:43;;;;;;;17.15;12.00;;;17.70;98.60;;;;;;4821212;29;20046;-46
2022/01/05 12:40:27;;;;;;;42.83;32.67;;;17.40;98.40;;;;;;4821602;29;20133;-48
2022/01/05 12:43:11;;;;;;;29.63;23.60;;;17.40;98.40;;;;;;4822523;29;20050;-47
2022/01/05 12:45:48;;;;;;;25.88;17.98;;;17.50;98.80;;;;;;4842282;29;20528;-44
2022/01/05 12:48:32;;;;;;;22.38;15.77;;;17.40;98.80;;;;;;4818458;29;20064;-47
2022/01/05 12:51:16;;;;;;;23.38;13.68;;;17.20;99.20;;;;;;4842035;29;20106;-46